sensor_id;sensor_type;location;lat;lon;timestamp;temperature;humidity
59973;DHT22;55298;-36.624;-64.282;2022-08-21T00:02:19;16.40;32.50
59973;DHT22;55298;-36.624;-64.282;2022-08-21T00:04:49;16.30;32.50
59973;DHT22;55298;-36.624;-64.282;2022-08-21T00:07:19;16.10;32.90
59973;DHT22;55298;-36.624;-64.282;2022-08-21T00:09:48;16.10;32.90
59973;DHT22;55298;-36.624;-64.282;2022-08-21T00:12:17;16.10;33.20
59973;DHT22;55298;-36.624;-64.282;2022-08-21T00:14:49;15.90;33.30
59973;DHT22;55298;-36.624;-64.282;2022-08-21T00:17:18;15.80;33.70
59973;DHT22;55298;-36.624;-64.282;2022-08-21T00:19:47;15.80;33.40
59973;DHT22;55298;-36.624;-64.282;2022-08-21T00:22:15;15.90;33.10
59973;DHT22;55298;-36.624;-64.282;2022-08-21T00:24:44;15.90;33.20
59973;DHT22;55298;-36.624;-64.282;2022-08-21T00:27:12;15.90;33.00
59973;DHT22;55298;-36.624;-64.282;2022-08-21T00:29:41;16.00;32.90
59973;DHT22;55298;-36.624;-64.282;2022-08-21T00:32:11;16.00;32.80
59973;DHT22;55298;-36.624;-64.282;2022-08-21T00:34:39;16.10;32.90
59973;DHT22;55298;-36.624;-64.282;2022-08-21T00:37:08;16.20;32.30
59973;DHT22;55298;-36.624;-64.282;2022-08-21T00:39:36;16.20;32.00
59973;DHT22;55298;-36.624;-64.282;2022-08-21T00:42:05;16.10;32.00
59973;DHT22;55298;-36.624;-64.282;2022-08-21T00:44:35;16.10;32.20
59973;DHT22;55298;-36.624;-64.282;2022-08-21T00:47:03;16.00;32.40
59973;DHT22;55298;-36.624;-64.282;2022-08-21T00:49:32;15.90;32.90
59973;DHT22;55298;-36.624;-64.282;2022-08-21T00:52:01;15.80;33.10
59973;DHT22;55298;-36.624;-64.282;2022-08-21T00:54:32;15.60;33.30
59973;DHT22;55298;-36.624;-64.282;2022-08-21T00:57:04;15.60;33.70
59973;DHT22;55298;-36.624;-64.282;2022-08-21T00:59:37;15.60;33.70
59973;DHT22;55298;-36.624;-64.282;2022-08-21T01:02:07;15.60;33.50
59973;DHT22;55298;-36.624;-64.282;2022-08-21T01:04:37;15.60;33.30
59973;DHT22;55298;-36.624;-64.282;2022-08-21T01:07:06;15.60;33.20
59973;DHT22;55298;-36.624;-64.282;2022-08-21T01:09:37;15.60;33.10
59973;DHT22;55298;-36.624;-64.282;2022-08-21T01:12:07;15.40;33.80
59973;DHT22;55298;-36.624;-64.282;2022-08-21T01:14:36;15.20;34.60
59973;DHT22;55298;-36.624;-64.282;2022-08-21T01:17:05;15.10;35.00
59973;DHT22;55298;-36.624;-64.282;2022-08-21T01:19:35;15.00;35.00
59973;DHT22;55298;-36.624;-64.282;2022-08-21T01:22:05;15.10;34.60
59973;DHT22;55298;-36.624;-64.282;2022-08-21T01:24:34;15.20;34.50
59973;DHT22;55298;-36.624;-64.282;2022-08-21T01:27:02;15.10;34.00
59973;DHT22;55298;-36.624;-64.282;2022-08-21T01:29:39;15.10;34.50
59973;DHT22;55298;-36.624;-64.282;2022-08-21T01:32:13;15.00;34.60
59973;DHT22;55298;-36.624;-64.282;2022-08-21T01:34:45;14.90;34.60
59973;DHT22;55298;-36.624;-64.282;2022-08-21T01:37:14;14.90;34.80
59973;DHT22;55298;-36.624;-64.282;2022-08-21T01:39:43;15.10;34.00
59973;DHT22;55298;-36.624;-64.282;2022-08-21T01:42:13;15.10;33.80
59973;DHT22;55298;-36.624;-64.282;2022-08-21T01:44:43;15.00;34.70
59973;DHT22;55298;-36.624;-64.282;2022-08-21T01:47:13;14.90;34.80
59973;DHT22;55298;-36.624;-64.282;2022-08-21T01:49:44;14.70;35.20
59973;DHT22;55298;-36.624;-64.282;2022-08-21T01:52:12;14.40;36.00
59973;DHT22;55298;-36.624;-64.282;2022-08-21T01:54:42;14.10;36.40
59973;DHT22;55298;-36.624;-64.282;2022-08-21T01:57:10;14.20;36.40
59973;DHT22;55298;-36.624;-64.282;2022-08-21T01:59:39;14.20;36.10
59973;DHT22;55298;-36.624;-64.282;2022-08-21T02:02:08;14.40;35.70
59973;DHT22;55298;-36.624;-64.282;2022-08-21T02:04:39;14.50;34.80
59973;DHT22;55298;-36.624;-64.282;2022-08-21T02:07:07;14.40;35.30
59973;DHT22;55298;-36.624;-64.282;2022-08-21T02:09:36;14.50;35.30
59973;DHT22;55298;-36.624;-64.282;2022-08-21T02:12:04;14.40;35.40
59973;DHT22;55298;-36.624;-64.282;2022-08-21T02:14:33;14.30;35.40
59973;DHT22;55298;-36.624;-64.282;2022-08-21T02:17:01;14.50;35.00
59973;DHT22;55298;-36.624;-64.282;2022-08-21T02:19:30;14.50;34.70
59973;DHT22;55298;-36.624;-64.282;2022-08-21T02:21:59;14.50;35.10
59973;DHT22;55298;-36.624;-64.282;2022-08-21T02:24:27;14.30;35.50
59973;DHT22;55298;-36.624;-64.282;2022-08-21T02:26:55;14.40;34.60
59973;DHT22;55298;-36.624;-64.282;2022-08-21T02:29:25;14.40;35.20
59973;DHT22;55298;-36.624;-64.282;2022-08-21T02:31:52;14.40;35.10
59973;DHT22;55298;-36.624;-64.282;2022-08-21T02:34:22;14.50;34.80
59973;DHT22;55298;-36.624;-64.282;2022-08-21T02:36:50;14.60;34.70
59973;DHT22;55298;-36.624;-64.282;2022-08-21T02:39:19;14.50;34.20
59973;DHT22;55298;-36.624;-64.282;2022-08-21T02:41:48;14.50;34.70
59973;DHT22;55298;-36.624;-64.282;2022-08-21T02:44:16;14.60;34.60
59973;DHT22;55298;-36.624;-64.282;2022-08-21T02:46:45;14.50;34.80
59973;DHT22;55298;-36.624;-64.282;2022-08-21T02:49:14;14.40;35.20
59973;DHT22;55298;-36.624;-64.282;2022-08-21T02:51:43;14.40;35.30
59973;DHT22;55298;-36.624;-64.282;2022-08-21T02:54:12;14.30;35.60
59973;DHT22;55298;-36.624;-64.282;2022-08-21T02:56:39;14.20;36.00
59973;DHT22;55298;-36.624;-64.282;2022-08-21T02:59:11;14.10;37.30
59973;DHT22;55298;-36.624;-64.282;2022-08-21T03:01:39;13.80;37.50
59973;DHT22;55298;-36.624;-64.282;2022-08-21T03:04:08;13.50;39.10
59973;DHT22;55298;-36.624;-64.282;2022-08-21T03:06:37;13.40;38.70
59973;DHT22;55298;-36.624;-64.282;2022-08-21T03:09:05;13.40;39.10
59973;DHT22;55298;-36.624;-64.282;2022-08-21T03:11:34;13.20;39.50
59973;DHT22;55298;-36.624;-64.282;2022-08-21T03:14:03;13.10;40.10
59973;DHT22;55298;-36.624;-64.282;2022-08-21T03:16:32;13.00;40.60
59973;DHT22;55298;-36.624;-64.282;2022-08-21T03:18:59;12.80;41.50
59973;DHT22;55298;-36.624;-64.282;2022-08-21T03:21:29;12.30;42.80
59973;DHT22;55298;-36.624;-64.282;2022-08-21T03:23:57;12.30;43.30
59973;DHT22;55298;-36.624;-64.282;2022-08-21T03:26:26;12.10;44.20
59973;DHT22;55298;-36.624;-64.282;2022-08-21T03:28:55;12.00;44.80
59973;DHT22;55298;-36.624;-64.282;2022-08-21T03:31:25;11.90;45.60
59973;DHT22;55298;-36.624;-64.282;2022-08-21T03:33:58;11.80;45.20
59973;DHT22;55298;-36.624;-64.282;2022-08-21T03:36:27;11.70;45.70
59973;DHT22;55298;-36.624;-64.282;2022-08-21T03:38:56;11.60;45.80
59973;DHT22;55298;-36.624;-64.282;2022-08-21T03:41:25;11.60;46.30
59973;DHT22;55298;-36.624;-64.282;2022-08-21T03:43:54;11.50;46.80
59973;DHT22;55298;-36.624;-64.282;2022-08-21T03:46:22;11.50;47.00
59973;DHT22;55298;-36.624;-64.282;2022-08-21T03:48:51;11.40;47.20
59973;DHT22;55298;-36.624;-64.282;2022-08-21T03:51:19;11.10;47.60
59973;DHT22;55298;-36.624;-64.282;2022-08-21T03:53:49;11.10;48.10
59973;DHT22;55298;-36.624;-64.282;2022-08-21T03:56:17;11.10;48.50
59973;DHT22;55298;-36.624;-64.282;2022-08-21T03:58:46;11.00;48.70
59973;DHT22;55298;-36.624;-64.282;2022-08-21T04:01:16;10.90;48.80
59973;DHT22;55298;-36.624;-64.282;2022-08-21T04:03:45;10.90;49.30
59973;DHT22;55298;-36.624;-64.282;2022-08-21T04:06:14;10.90;49.30
59973;DHT22;55298;-36.624;-64.282;2022-08-21T04:08:42;11.00;49.10
59973;DHT22;55298;-36.624;-64.282;2022-08-21T04:11:10;11.00;48.00
59973;DHT22;55298;-36.624;-64.282;2022-08-21T04:13:39;10.90;48.40
59973;DHT22;55298;-36.624;-64.282;2022-08-21T04:16:08;11.00;48.20
59973;DHT22;55298;-36.624;-64.282;2022-08-21T04:18:37;11.00;47.60
59973;DHT22;55298;-36.624;-64.282;2022-08-21T04:21:07;11.00;48.10
59973;DHT22;55298;-36.624;-64.282;2022-08-21T04:23:38;11.20;47.50
59973;DHT22;55298;-36.624;-64.282;2022-08-21T04:26:08;11.10;47.50
59973;DHT22;55298;-36.624;-64.282;2022-08-21T04:28:35;11.10;47.50
59973;DHT22;55298;-36.624;-64.282;2022-08-21T04:31:05;11.10;47.80
59973;DHT22;55298;-36.624;-64.282;2022-08-21T04:33:33;11.10;47.90
59973;DHT22;55298;-36.624;-64.282;2022-08-21T04:36:02;10.90;47.80
59973;DHT22;55298;-36.624;-64.282;2022-08-21T04:38:30;11.20;47.70
59973;DHT22;55298;-36.624;-64.282;2022-08-21T04:40:59;11.30;47.20
59973;DHT22;55298;-36.624;-64.282;2022-08-21T04:43:27;11.20;47.50
59973;DHT22;55298;-36.624;-64.282;2022-08-21T04:45:56;11.30;49.00
59973;DHT22;55298;-36.624;-64.282;2022-08-21T04:48:25;10.90;49.60
59973;DHT22;55298;-36.624;-64.282;2022-08-21T04:51:10;10.90;49.70
59973;DHT22;55298;-36.624;-64.282;2022-08-21T04:53:45;10.80;49.60
59973;DHT22;55298;-36.624;-64.282;2022-08-21T04:56:19;10.70;50.00
59973;DHT22;55298;-36.624;-64.282;2022-08-21T04:58:51;10.70;50.00
59973;DHT22;55298;-36.624;-64.282;2022-08-21T05:01:22;10.50;50.40
59973;DHT22;55298;-36.624;-64.282;2022-08-21T05:03:54;10.40;51.10
59973;DHT22;55298;-36.624;-64.282;2022-08-21T05:06:25;10.20;52.00
59973;DHT22;55298;-36.624;-64.282;2022-08-21T05:08:56;10.00;52.60
59973;DHT22;55298;-36.624;-64.282;2022-08-21T05:11:25;10.00;52.90
59973;DHT22;55298;-36.624;-64.282;2022-08-21T05:13:53;10.00;53.50
59973;DHT22;55298;-36.624;-64.282;2022-08-21T05:16:23;9.90;54.80
59973;DHT22;55298;-36.624;-64.282;2022-08-21T05:18:52;9.60;57.10
59973;DHT22;55298;-36.624;-64.282;2022-08-21T05:21:21;9.50;57.60
59973;DHT22;55298;-36.624;-64.282;2022-08-21T05:23:49;9.40;58.50
59973;DHT22;55298;-36.624;-64.282;2022-08-21T05:26:17;9.20;59.80
59973;DHT22;55298;-36.624;-64.282;2022-08-21T05:28:47;9.10;61.30
59973;DHT22;55298;-36.624;-64.282;2022-08-21T05:31:15;8.70;63.90
59973;DHT22;55298;-36.624;-64.282;2022-08-21T05:33:44;8.50;65.00
59973;DHT22;55298;-36.624;-64.282;2022-08-21T05:36:12;8.40;66.30
59973;DHT22;55298;-36.624;-64.282;2022-08-21T05:38:42;8.30;67.00
59973;DHT22;55298;-36.624;-64.282;2022-08-21T05:41:11;8.30;68.20
59973;DHT22;55298;-36.624;-64.282;2022-08-21T05:43:39;8.20;69.10
59973;DHT22;55298;-36.624;-64.282;2022-08-21T05:46:08;8.00;70.60
59973;DHT22;55298;-36.624;-64.282;2022-08-21T05:48:39;7.80;73.30
59973;DHT22;55298;-36.624;-64.282;2022-08-21T05:51:12;7.80;74.10
59973;DHT22;55298;-36.624;-64.282;2022-08-21T05:53:41;7.80;75.60
59973;DHT22;55298;-36.624;-64.282;2022-08-21T05:56:11;7.70;77.10
59973;DHT22;55298;-36.624;-64.282;2022-08-21T05:58:41;7.70;77.70
59973;DHT22;55298;-36.624;-64.282;2022-08-21T06:01:09;7.70;77.60
59973;DHT22;55298;-36.624;-64.282;2022-08-21T06:03:40;7.70;78.30
59973;DHT22;55298;-36.624;-64.282;2022-08-21T06:06:08;7.70;78.10
59973;DHT22;55298;-36.624;-64.282;2022-08-21T06:08:38;7.80;78.30
59973;DHT22;55298;-36.624;-64.282;2022-08-21T06:11:07;7.80;78.00
59973;DHT22;55298;-36.624;-64.282;2022-08-21T06:13:36;7.90;78.50
59973;DHT22;55298;-36.624;-64.282;2022-08-21T06:16:12;7.90;78.00
59973;DHT22;55298;-36.624;-64.282;2022-08-21T06:18:43;8.00;78.00
59973;DHT22;55298;-36.624;-64.282;2022-08-21T06:21:13;8.00;78.30
59973;DHT22;55298;-36.624;-64.282;2022-08-21T06:23:41;8.00;78.30
59973;DHT22;55298;-36.624;-64.282;2022-08-21T06:26:14;8.10;79.00
59973;DHT22;55298;-36.624;-64.282;2022-08-21T06:28:43;8.10;78.60
59973;DHT22;55298;-36.624;-64.282;2022-08-21T06:31:16;8.10;78.30
59973;DHT22;55298;-36.624;-64.282;2022-08-21T06:33:45;8.20;77.80
59973;DHT22;55298;-36.624;-64.282;2022-08-21T06:36:15;8.20;78.40
59973;DHT22;55298;-36.624;-64.282;2022-08-21T06:38:44;8.20;79.10
59973;DHT22;55298;-36.624;-64.282;2022-08-21T06:41:14;8.10;80.00
59973;DHT22;55298;-36.624;-64.282;2022-08-21T06:43:43;8.10;79.80
59973;DHT22;55298;-36.624;-64.282;2022-08-21T06:46:11;8.10;81.10
59973;DHT22;55298;-36.624;-64.282;2022-08-21T06:48:39;8.10;81.90
59973;DHT22;55298;-36.624;-64.282;2022-08-21T06:51:09;8.00;83.80
59973;DHT22;55298;-36.624;-64.282;2022-08-21T06:53:37;8.00;84.60
59973;DHT22;55298;-36.624;-64.282;2022-08-21T06:56:06;8.00;85.50
59973;DHT22;55298;-36.624;-64.282;2022-08-21T06:58:35;8.00;86.20
59973;DHT22;55298;-36.624;-64.282;2022-08-21T07:01:04;8.00;86.60
59973;DHT22;55298;-36.624;-64.282;2022-08-21T07:03:36;8.00;87.40
59973;DHT22;55298;-36.624;-64.282;2022-08-21T07:06:07;7.90;88.50
59973;DHT22;55298;-36.624;-64.282;2022-08-21T07:08:38;7.80;89.80
59973;DHT22;55298;-36.624;-64.282;2022-08-21T07:11:12;7.80;90.50
59973;DHT22;55298;-36.624;-64.282;2022-08-21T07:13:42;7.70;90.80
59973;DHT22;55298;-36.624;-64.282;2022-08-21T07:16:11;7.80;91.50
59973;DHT22;55298;-36.624;-64.282;2022-08-21T07:18:39;7.70;92.10
59973;DHT22;55298;-36.624;-64.282;2022-08-21T07:21:09;7.60;93.10
59973;DHT22;55298;-36.624;-64.282;2022-08-21T07:23:42;7.60;93.40
59973;DHT22;55298;-36.624;-64.282;2022-08-21T07:26:14;7.60;94.10
59973;DHT22;55298;-36.624;-64.282;2022-08-21T07:28:43;7.50;94.80
59973;DHT22;55298;-36.624;-64.282;2022-08-21T07:31:14;7.60;95.70
59973;DHT22;55298;-36.624;-64.282;2022-08-21T07:33:44;7.60;96.10
59973;DHT22;55298;-36.624;-64.282;2022-08-21T07:36:13;7.50;96.70
59973;DHT22;55298;-36.624;-64.282;2022-08-21T07:38:43;7.50;97.40
59973;DHT22;55298;-36.624;-64.282;2022-08-21T07:41:16;7.50;97.80
59973;DHT22;55298;-36.624;-64.282;2022-08-21T07:43:46;7.50;98.20
59973;DHT22;55298;-36.624;-64.282;2022-08-21T07:46:14;7.40;98.80
59973;DHT22;55298;-36.624;-64.282;2022-08-21T07:48:44;7.40;99.10
59973;DHT22;55298;-36.624;-64.282;2022-08-21T07:51:14;7.50;99.20
59973;DHT22;55298;-36.624;-64.282;2022-08-21T07:53:51;7.60;99.60
59973;DHT22;55298;-36.624;-64.282;2022-08-21T07:56:21;7.60;99.90
59973;DHT22;55298;-36.624;-64.282;2022-08-21T07:58:49;7.60;99.90
59973;DHT22;55298;-36.624;-64.282;2022-08-21T08:01:19;7.60;99.90
59973;DHT22;55298;-36.624;-64.282;2022-08-21T08:03:49;7.70;99.90
59973;DHT22;55298;-36.624;-64.282;2022-08-21T08:06:17;7.70;99.90
59973;DHT22;55298;-36.624;-64.282;2022-08-21T08:08:46;7.70;99.90
59973;DHT22;55298;-36.624;-64.282;2022-08-21T08:11:15;7.70;99.90
59973;DHT22;55298;-36.624;-64.282;2022-08-21T08:13:49;7.80;99.90
59973;DHT22;55298;-36.624;-64.282;2022-08-21T08:16:19;7.80;99.90
59973;DHT22;55298;-36.624;-64.282;2022-08-21T08:18:47;7.80;99.90
59973;DHT22;55298;-36.624;-64.282;2022-08-21T08:21:17;7.80;99.90
59973;DHT22;55298;-36.624;-64.282;2022-08-21T08:23:47;7.80;99.90
59973;DHT22;55298;-36.624;-64.282;2022-08-21T08:26:16;8.00;99.90
59973;DHT22;55298;-36.624;-64.282;2022-08-21T08:28:45;7.90;99.90
59973;DHT22;55298;-36.624;-64.282;2022-08-21T08:31:14;8.00;99.90
59973;DHT22;55298;-36.624;-64.282;2022-08-21T08:33:43;8.00;99.90
59973;DHT22;55298;-36.624;-64.282;2022-08-21T08:36:14;8.00;99.90
59973;DHT22;55298;-36.624;-64.282;2022-08-21T08:38:42;8.00;99.90
59973;DHT22;55298;-36.624;-64.282;2022-08-21T08:41:16;8.00;99.90
59973;DHT22;55298;-36.624;-64.282;2022-08-21T08:43:55;8.00;99.90
59973;DHT22;55298;-36.624;-64.282;2022-08-21T08:46:38;8.00;99.90
59973;DHT22;55298;-36.624;-64.282;2022-08-21T08:49:15;8.10;99.90
59973;DHT22;55298;-36.624;-64.282;2022-08-21T08:51:51;8.10;99.90
59973;DHT22;55298;-36.624;-64.282;2022-08-21T08:54:31;8.10;99.90
59973;DHT22;55298;-36.624;-64.282;2022-08-21T08:57:03;8.20;99.90
59973;DHT22;55298;-36.624;-64.282;2022-08-21T08:59:44;8.10;99.90
59973;DHT22;55298;-36.624;-64.282;2022-08-21T09:02:15;8.10;99.90
59973;DHT22;55298;-36.624;-64.282;2022-08-21T09:04:47;8.10;99.90
59973;DHT22;55298;-36.624;-64.282;2022-08-21T09:10:25;8.20;99.90
59973;DHT22;55298;-36.624;-64.282;2022-08-21T09:13:28;8.10;99.90
59973;DHT22;55298;-36.624;-64.282;2022-08-21T09:22:21;8.10;99.90
59973;DHT22;55298;-36.624;-64.282;2022-08-21T09:25:25;8.10;99.90
59973;DHT22;55298;-36.624;-64.282;2022-08-21T09:27:54;8.10;99.90
59973;DHT22;55298;-36.624;-64.282;2022-08-21T09:30:29;8.10;99.90
59973;DHT22;55298;-36.624;-64.282;2022-08-21T09:32:59;8.00;99.90
59973;DHT22;55298;-36.624;-64.282;2022-08-21T09:35:28;8.00;99.90
59973;DHT22;55298;-36.624;-64.282;2022-08-21T09:38:03;8.00;99.90
59973;DHT22;55298;-36.624;-64.282;2022-08-21T09:40:42;8.00;99.90
59973;DHT22;55298;-36.624;-64.282;2022-08-21T09:43:19;8.00;99.90
59973;DHT22;55298;-36.624;-64.282;2022-08-21T09:45:50;8.00;99.90
59973;DHT22;55298;-36.624;-64.282;2022-08-21T09:48:29;8.00;99.90
59973;DHT22;55298;-36.624;-64.282;2022-08-21T09:51:10;8.00;99.90
59973;DHT22;55298;-36.624;-64.282;2022-08-21T09:53:51;7.90;99.90
59973;DHT22;55298;-36.624;-64.282;2022-08-21T09:56:28;7.90;99.90
59973;DHT22;55298;-36.624;-64.282;2022-08-21T09:59:25;7.90;99.90
59973;DHT22;55298;-36.624;-64.282;2022-08-21T10:01:59;7.90;99.90
59973;DHT22;55298;-36.624;-64.282;2022-08-21T10:04:32;7.90;99.90
59973;DHT22;55298;-36.624;-64.282;2022-08-21T10:07:11;7.80;99.90
59973;DHT22;55298;-36.624;-64.282;2022-08-21T10:09:40;7.80;99.90
59973;DHT22;55298;-36.624;-64.282;2022-08-21T10:12:21;7.70;99.90
59973;DHT22;55298;-36.624;-64.282;2022-08-21T10:15:09;7.70;99.90
59973;DHT22;55298;-36.624;-64.282;2022-08-21T10:24:17;7.60;99.90
59973;DHT22;55298;-36.624;-64.282;2022-08-21T10:30:07;7.50;99.90
59973;DHT22;55298;-36.624;-64.282;2022-08-21T10:32:58;7.50;99.90
59973;DHT22;55298;-36.624;-64.282;2022-08-21T10:38:32;7.40;99.90
59973;DHT22;55298;-36.624;-64.282;2022-08-21T10:44:08;7.10;99.90
59973;DHT22;55298;-36.624;-64.282;2022-08-21T10:49:41;7.00;99.90
59973;DHT22;55298;-36.624;-64.282;2022-08-21T10:52:30;7.00;99.90
59973;DHT22;55298;-36.624;-64.282;2022-08-21T10:55:16;6.90;99.90
59973;DHT22;55298;-36.624;-64.282;2022-08-21T10:58:02;6.80;99.90
59973;DHT22;55298;-36.624;-64.282;2022-08-21T11:00:43;6.80;99.90
59973;DHT22;55298;-36.624;-64.282;2022-08-21T11:03:21;6.70;99.90
59973;DHT22;55298;-36.624;-64.282;2022-08-21T11:05:55;6.70;99.90
59973;DHT22;55298;-36.624;-64.282;2022-08-21T11:08:35;6.60;99.90
59973;DHT22;55298;-36.624;-64.282;2022-08-21T11:11:39;6.80;99.90
59973;DHT22;55298;-36.624;-64.282;2022-08-21T11:14:03;6.60;99.90
59973;DHT22;55298;-36.624;-64.282;2022-08-21T11:16:49;6.60;99.90
59973;DHT22;55298;-36.624;-64.282;2022-08-21T11:19:45;6.40;99.90
59973;DHT22;55298;-36.624;-64.282;2022-08-21T11:22:25;6.40;99.90
59973;DHT22;55298;-36.624;-64.282;2022-08-21T11:25:08;6.40;99.90
59973;DHT22;55298;-36.624;-64.282;2022-08-21T11:30:26;6.40;99.90
59973;DHT22;55298;-36.624;-64.282;2022-08-21T11:33:07;6.30;99.90
59973;DHT22;55298;-36.624;-64.282;2022-08-21T11:35:55;6.30;99.90
59973;DHT22;55298;-36.624;-64.282;2022-08-21T11:38:38;6.30;99.90
59973;DHT22;55298;-36.624;-64.282;2022-08-21T11:41:36;6.40;99.90
59973;DHT22;55298;-36.624;-64.282;2022-08-21T11:44:18;5.80;99.90
59973;DHT22;55298;-36.624;-64.282;2022-08-21T11:47:23;6.50;99.90
59973;DHT22;55298;-36.624;-64.282;2022-08-21T11:50:06;6.60;99.90
59973;DHT22;55298;-36.624;-64.282;2022-08-21T11:52:48;6.60;99.90
59973;DHT22;55298;-36.624;-64.282;2022-08-21T11:55:26;6.60;99.90
59973;DHT22;55298;-36.624;-64.282;2022-08-21T11:58:05;6.80;99.90
59973;DHT22;55298;-36.624;-64.282;2022-08-21T12:00:44;6.80;99.90
59973;DHT22;55298;-36.624;-64.282;2022-08-21T12:03:36;6.90;99.90
59973;DHT22;55298;-36.624;-64.282;2022-08-21T12:06:08;6.90;99.90
59973;DHT22;55298;-36.624;-64.282;2022-08-21T12:08:43;6.90;99.90
59973;DHT22;55298;-36.624;-64.282;2022-08-21T12:11:25;7.00;99.90
59973;DHT22;55298;-36.624;-64.282;2022-08-21T12:14:15;7.00;99.90
59973;DHT22;55298;-36.624;-64.282;2022-08-21T12:16:46;7.00;99.90
59973;DHT22;55298;-36.624;-64.282;2022-08-21T12:19:29;7.00;99.90
59973;DHT22;55298;-36.624;-64.282;2022-08-21T12:22:10;7.00;99.90
59973;DHT22;55298;-36.624;-64.282;2022-08-21T12:24:48;7.10;99.90
59973;DHT22;55298;-36.624;-64.282;2022-08-21T12:27:52;7.20;99.90
59973;DHT22;55298;-36.624;-64.282;2022-08-21T12:30:37;7.20;99.90
59973;DHT22;55298;-36.624;-64.282;2022-08-21T12:33:23;7.50;99.90
59973;DHT22;55298;-36.624;-64.282;2022-08-21T12:36:04;7.90;99.90
59973;DHT22;55298;-36.624;-64.282;2022-08-21T12:38:43;8.30;99.90
59973;DHT22;55298;-36.624;-64.282;2022-08-21T12:41:28;8.20;99.90
59973;DHT22;55298;-36.624;-64.282;2022-08-21T12:44:11;8.40;99.90
59973;DHT22;55298;-36.624;-64.282;2022-08-21T12:46:55;8.20;99.90
59973;DHT22;55298;-36.624;-64.282;2022-08-21T12:49:48;8.20;99.90
59973;DHT22;55298;-36.624;-64.282;2022-08-21T12:52:32;8.10;99.90
59973;DHT22;55298;-36.624;-64.282;2022-08-21T12:55:04;8.60;99.90
59973;DHT22;55298;-36.624;-64.282;2022-08-21T12:57:32;8.50;99.90
59973;DHT22;55298;-36.624;-64.282;2022-08-21T13:00:09;9.50;99.90
59973;DHT22;55298;-36.624;-64.282;2022-08-21T13:02:46;10.10;99.90
59973;DHT22;55298;-36.624;-64.282;2022-08-21T13:05:34;10.10;99.90
59973;DHT22;55298;-36.624;-64.282;2022-08-21T13:08:06;10.00;99.90
59973;DHT22;55298;-36.624;-64.282;2022-08-21T13:10:36;9.90;99.90
59973;DHT22;55298;-36.624;-64.282;2022-08-21T13:13:12;10.20;99.90
59973;DHT22;55298;-36.624;-64.282;2022-08-21T13:15:44;10.10;99.90
59973;DHT22;55298;-36.624;-64.282;2022-08-21T13:18:25;10.40;99.90
59973;DHT22;55298;-36.624;-64.282;2022-08-21T13:21:07;10.40;99.90
59973;DHT22;55298;-36.624;-64.282;2022-08-21T13:23:36;10.80;99.90
59973;DHT22;55298;-36.624;-64.282;2022-08-21T13:26:15;11.10;99.90
59973;DHT22;55298;-36.624;-64.282;2022-08-21T13:28:45;11.10;99.90
59973;DHT22;55298;-36.624;-64.282;2022-08-21T13:31:20;11.20;99.70
59973;DHT22;55298;-36.624;-64.282;2022-08-21T13:33:51;11.40;99.40
59973;DHT22;55298;-36.624;-64.282;2022-08-21T13:36:29;11.40;98.50
59973;DHT22;55298;-36.624;-64.282;2022-08-21T13:39:03;11.40;98.90
59973;DHT22;55298;-36.624;-64.282;2022-08-21T13:41:35;11.70;98.40
59973;DHT22;55298;-36.624;-64.282;2022-08-21T13:44:23;11.90;96.70
59973;DHT22;55298;-36.624;-64.282;2022-08-21T13:46:54;11.60;97.60
59973;DHT22;55298;-36.624;-64.282;2022-08-21T13:49:29;11.60;97.70
59973;DHT22;55298;-36.624;-64.282;2022-08-21T13:51:59;11.90;96.50
59973;DHT22;55298;-36.624;-64.282;2022-08-21T13:54:37;11.60;97.00
59973;DHT22;55298;-36.624;-64.282;2022-08-21T13:57:17;11.60;98.20
59973;DHT22;55298;-36.624;-64.282;2022-08-21T13:59:47;11.70;97.80
59973;DHT22;55298;-36.624;-64.282;2022-08-21T14:02:18;12.20;96.40
59973;DHT22;55298;-36.624;-64.282;2022-08-21T14:05:03;12.50;95.40
59973;DHT22;55298;-36.624;-64.282;2022-08-21T14:07:36;12.60;94.50
59973;DHT22;55298;-36.624;-64.282;2022-08-21T14:10:11;12.40;95.00
59973;DHT22;55298;-36.624;-64.282;2022-08-21T14:13:01;12.00;95.90
59973;DHT22;55298;-36.624;-64.282;2022-08-21T14:15:33;12.00;96.20
59973;DHT22;55298;-36.624;-64.282;2022-08-21T14:18:13;12.40;94.90
59973;DHT22;55298;-36.624;-64.282;2022-08-21T14:20:43;12.50;94.60
59973;DHT22;55298;-36.624;-64.282;2022-08-21T14:23:22;12.30;95.10
59973;DHT22;55298;-36.624;-64.282;2022-08-21T14:25:51;12.30;94.70
59973;DHT22;55298;-36.624;-64.282;2022-08-21T14:28:28;12.30;95.30
59973;DHT22;55298;-36.624;-64.282;2022-08-21T14:30:57;12.50;95.00
59973;DHT22;55298;-36.624;-64.282;2022-08-21T14:33:31;12.90;94.00
59973;DHT22;55298;-36.624;-64.282;2022-08-21T14:36:00;13.50;91.60
59973;DHT22;55298;-36.624;-64.282;2022-08-21T14:38:29;12.80;92.30
59973;DHT22;55298;-36.624;-64.282;2022-08-21T14:41:03;12.80;93.10
59973;DHT22;55298;-36.624;-64.282;2022-08-21T14:43:32;12.40;93.50
59973;DHT22;55298;-36.624;-64.282;2022-08-21T14:46:02;12.70;93.40
59973;DHT22;55298;-36.624;-64.282;2022-08-21T14:48:30;12.90;92.70
59973;DHT22;55298;-36.624;-64.282;2022-08-21T14:50:59;13.30;91.80
59973;DHT22;55298;-36.624;-64.282;2022-08-21T14:53:28;13.60;91.70
59973;DHT22;55298;-36.624;-64.282;2022-08-21T14:55:56;14.20;90.20
59973;DHT22;55298;-36.624;-64.282;2022-08-21T14:58:37;13.80;88.20
59973;DHT22;55298;-36.624;-64.282;2022-08-21T15:01:08;13.30;91.00
59973;DHT22;55298;-36.624;-64.282;2022-08-21T15:03:38;12.90;92.00
59973;DHT22;55298;-36.624;-64.282;2022-08-21T15:06:07;12.70;92.90
59973;DHT22;55298;-36.624;-64.282;2022-08-21T15:08:36;12.70;93.00
59973;DHT22;55298;-36.624;-64.282;2022-08-21T15:11:07;12.70;93.40
59973;DHT22;55298;-36.624;-64.282;2022-08-21T15:13:38;12.70;93.70
59973;DHT22;55298;-36.624;-64.282;2022-08-21T15:16:07;12.70;93.50
59973;DHT22;55298;-36.624;-64.282;2022-08-21T15:18:37;12.80;93.30
59973;DHT22;55298;-36.624;-64.282;2022-08-21T15:21:05;12.70;93.10
59973;DHT22;55298;-36.624;-64.282;2022-08-21T15:23:34;13.00;93.10
59973;DHT22;55298;-36.624;-64.282;2022-08-21T15:26:02;12.70;93.10
59973;DHT22;55298;-36.624;-64.282;2022-08-21T15:28:31;12.70;93.70
59973;DHT22;55298;-36.624;-64.282;2022-08-21T15:31:01;12.60;93.90
59973;DHT22;55298;-36.624;-64.282;2022-08-21T15:33:30;12.80;93.30
59973;DHT22;55298;-36.624;-64.282;2022-08-21T15:35:58;12.90;92.40
59973;DHT22;55298;-36.624;-64.282;2022-08-21T15:38:28;13.00;92.80
59973;DHT22;55298;-36.624;-64.282;2022-08-21T15:40:56;12.90;93.20
59973;DHT22;55298;-36.624;-64.282;2022-08-21T15:43:29;13.20;92.20
59973;DHT22;55298;-36.624;-64.282;2022-08-21T15:46:00;13.40;91.80
59973;DHT22;55298;-36.624;-64.282;2022-08-21T15:48:31;13.90;90.50
59973;DHT22;55298;-36.624;-64.282;2022-08-21T15:50:59;14.40;88.30
59973;DHT22;55298;-36.624;-64.282;2022-08-21T15:53:29;14.50;86.80
59973;DHT22;55298;-36.624;-64.282;2022-08-21T15:56:02;14.50;85.80
59973;DHT22;55298;-36.624;-64.282;2022-08-21T15:58:31;14.10;86.90
59973;DHT22;55298;-36.624;-64.282;2022-08-21T16:01:01;14.20;81.90